Time;durP1;ratioP1;P1;durP2;ratioP2;P2;SDS_P1;SDS_P2;PMS_P1;PMS_P2;Temp;Humidity;BMP_temperature;BMP_pressure;BME280_temperature;BME280_humidity;BME280_pressure;Samples;Min_cycle;Max_cycle;Signal;HPM_P1;HPM_P2
2023/01/17 00:01:32;;;;;;;;;;;21.30;35.60;;;;;;476114;250;1942;-43
2023/01/17 00:03:33;;;;;;;;;;;21.10;35.50;;;;;;476072;250;2490;-43
2023/01/17 00:10:26;;;;;;;;;;;21.20;35.50;;;;;;450461;264;1806;-43
2023/01/17 00:12:27;;;;;;;;;;;21.20;35.50;;;;;;452000;263;1972;-43
2023/01/17 00:14:28;;;;;;;;;;;21.10;35.50;;;;;;450374;263;1736;-43
2023/01/17 00:16:30;;;;;;;;;;;21.10;35.50;;;;;;452102;263;2241;-43
2023/01/17 00:18:31;;;;;;;;;;;21.20;35.50;;;;;;450542;263;1744;-43
2023/01/17 01:34:39;;;;;;;;;;;21.00;35.70;;;;;;477015;250;1837;-44
2023/01/17 01:36:40;;;;;;;;;;;21.00;35.70;;;;;;477006;250;1639;-44
2023/01/17 01:38:41;;;;;;;;;;;21.00;35.70;;;;;;474681;250;2031;-44
2023/01/17 01:40:43;;;;;;;;;;;21.00;35.60;;;;;;476040;249;1900;-44
2023/01/17 01:42:44;;;;;;;;;;;21.00;35.60;;;;;;475512;250;2033;-44
2023/01/17 01:44:45;;;;;;;;;;;20.90;35.60;;;;;;475434;250;1767;-44
2023/01/17 01:46:47;;;;;;;;;;;21.00;35.70;;;;;;475674;250;1810;-44
2023/01/17 01:48:48;;;;;;;;;;;20.90;35.70;;;;;;475572;250;2184;-43
2023/01/17 01:50:49;;;;;;;;;;;21.00;35.70;;;;;;475455;251;1839;-44
2023/01/17 01:52:51;;;;;;;;;;;21.00;35.60;;;;;;475614;250;2130;-44
2023/01/17 01:54:52;;;;;;;;;;;21.00;35.60;;;;;;475487;250;1634;-44
2023/01/17 01:56:53;;;;;;;;;;;21.00;35.60;;;;;;475624;250;2150;-44
2023/01/17 01:58:55;;;;;;;;;;;21.00;35.70;;;;;;475557;250;1904;-44
2023/01/17 02:00:56;;;;;;;;;;;20.90;35.70;;;;;;475650;251;2129;-43
2023/01/17 02:02:57;;;;;;;;;;;20.90;35.70;;;;;;475905;250;1691;-43
2023/01/17 02:04:59;;;;;;;;;;;20.90;35.60;;;;;;475791;250;2147;-43
2023/01/17 02:07:00;;;;;;;;;;;20.90;35.70;;;;;;475622;250;1613;-44
2023/01/17 02:09:01;;;;;;;;;;;20.90;35.70;;;;;;475615;250;2172;-44
2023/01/17 02:11:02;;;;;;;;;;;20.90;35.80;;;;;;475651;251;2935;-44
2023/01/17 02:13:04;;;;;;;;;;;20.90;35.80;;;;;;475651;251;1709;-43
2023/01/17 02:15:05;;;;;;;;;;;20.90;35.80;;;;;;475853;250;2530;-44
2023/01/17 02:17:07;;;;;;;;;;;20.90;35.70;;;;;;475875;250;1672;-44
2023/01/17 02:19:08;;;;;;;;;;;21.10;35.40;;;;;;475810;250;1724;-44
2023/01/17 02:21:09;;;;;;;;;;;21.30;35.00;;;;;;475749;250;1731;-44
2023/01/17 02:23:11;;;;;;;;;;;21.50;34.70;;;;;;475743;250;1628;-44
2023/01/17 02:25:12;;;;;;;;;;;21.70;34.50;;;;;;475564;250;1723;-44
2023/01/17 02:27:13;;;;;;;;;;;21.80;34.30;;;;;;475779;247;1662;-44
2023/01/17 02:29:15;;;;;;;;;;;21.90;34.10;;;;;;475659;250;2152;-44
2023/01/17 02:31:16;;;;;;;;;;;22.00;34.00;;;;;;475656;251;1753;-43
2023/01/17 02:33:17;;;;;;;;;;;22.00;33.80;;;;;;475728;250;2434;-44
2023/01/17 02:35:19;;;;;;;;;;;22.10;33.70;;;;;;475928;250;2402;-44
2023/01/17 02:37:21;;;;;;;;;;;22.10;33.60;;;;;;475519;250;1558;-44
2023/01/17 02:39:22;;;;;;;;;;;22.20;33.60;;;;;;475517;251;1964;-44
2023/01/17 02:41:23;;;;;;;;;;;22.30;33.50;;;;;;475783;250;1684;-44
2023/01/17 02:43:25;;;;;;;;;;;22.30;33.40;;;;;;475537;251;2264;-44
2023/01/17 02:45:26;;;;;;;;;;;22.40;33.30;;;;;;475732;250;2150;-43
2023/01/17 02:47:27;;;;;;;;;;;22.40;33.30;;;;;;475529;250;1730;-44
2023/01/17 02:49:29;;;;;;;;;;;22.40;33.20;;;;;;475483;251;2203;-44
2023/01/17 02:51:30;;;;;;;;;;;22.50;33.20;;;;;;475871;250;2046;-44
2023/01/17 02:53:31;;;;;;;;;;;22.50;33.10;;;;;;475921;250;2063;-44
2023/01/17 02:55:33;;;;;;;;;;;22.50;33.10;;;;;;475617;251;1679;-44
2023/01/17 02:57:34;;;;;;;;;;;22.60;33.10;;;;;;476023;250;1741;-44
2023/01/17 02:59:36;;;;;;;;;;;22.60;33.00;;;;;;475969;250;1694;-44
2023/01/17 03:01:37;;;;;;;;;;;22.60;33.00;;;;;;475587;250;1984;-44
2023/01/17 03:03:38;;;;;;;;;;;22.60;32.90;;;;;;475626;250;1906;-44
2023/01/17 03:05:40;;;;;;;;;;;22.70;32.90;;;;;;475899;250;2298;-44
2023/01/17 03:07:43;;;;;;;;;;;22.70;32.90;;;;;;475595;250;1858;-44
2023/01/17 03:09:44;;;;;;;;;;;22.70;32.80;;;;;;475465;251;2343;-43
2023/01/17 03:11:44;;;;;;;;;;;22.70;32.80;;;;;;475201;251;1673;-44
2023/01/17 03:13:46;;;;;;;;;;;22.80;32.80;;;;;;475600;250;1731;-44
2023/01/17 03:15:47;;;;;;;;;;;22.80;32.80;;;;;;475392;250;1949;-44
2023/01/17 03:17:48;;;;;;;;;;;22.80;32.80;;;;;;475355;250;2272;-44
2023/01/17 03:19:50;;;;;;;;;;;22.80;32.70;;;;;;475407;251;1674;-44
2023/01/17 03:21:51;;;;;;;;;;;22.80;32.70;;;;;;475448;250;1945;-44
2023/01/17 03:23:52;;;;;;;;;;;22.90;32.70;;;;;;475388;251;1670;-44
2023/01/17 03:25:54;;;;;;;;;;;22.90;32.70;;;;;;475649;250;1988;-44
2023/01/17 03:27:55;;;;;;;;;;;22.90;32.70;;;;;;475593;250;2290;-44
2023/01/17 03:29:56;;;;;;;;;;;22.90;32.60;;;;;;475436;250;2204;-44
2023/01/17 03:31:57;;;;;;;;;;;23.00;32.60;;;;;;475543;250;2034;-44
2023/01/17 03:33:59;;;;;;;;;;;22.90;32.60;;;;;;475583;250;2034;-44
2023/01/17 03:36:00;;;;;;;;;;;23.00;32.60;;;;;;475581;250;1615;-44
2023/01/17 03:38:01;;;;;;;;;;;23.00;32.50;;;;;;475869;250;1770;-44
2023/01/17 03:40:03;;;;;;;;;;;23.00;32.50;;;;;;475620;250;2112;-44
2023/01/17 03:42:04;;;;;;;;;;;23.00;32.50;;;;;;475633;250;1669;-45
2023/01/17 03:44:05;;;;;;;;;;;23.10;32.50;;;;;;475623;250;1820;-44
2023/01/17 03:46:07;;;;;;;;;;;23.10;32.50;;;;;;475594;250;2272;-44
2023/01/17 03:48:08;;;;;;;;;;;23.00;32.50;;;;;;475581;250;1723;-44
2023/01/17 03:50:09;;;;;;;;;;;23.10;32.50;;;;;;475614;251;2196;-44
2023/01/17 03:52:11;;;;;;;;;;;23.10;32.50;;;;;;476067;250;1742;-44
2023/01/17 03:54:12;;;;;;;;;;;23.10;32.50;;;;;;475796;250;1602;-44
2023/01/17 03:56:13;;;;;;;;;;;23.10;32.40;;;;;;475587;251;2365;-44
2023/01/17 03:58:15;;;;;;;;;;;23.10;32.40;;;;;;475545;251;2076;-44
2023/01/17 04:00:16;;;;;;;;;;;23.10;32.40;;;;;;475534;251;1677;-44
2023/01/17 04:02:17;;;;;;;;;;;23.20;32.40;;;;;;475812;250;2151;-44
2023/01/17 04:04:19;;;;;;;;;;;23.20;32.40;;;;;;475798;250;2067;-44
2023/01/17 04:06:20;;;;;;;;;;;23.20;32.40;;;;;;475583;251;2124;-44
2023/01/17 04:08:21;;;;;;;;;;;23.20;32.40;;;;;;475515;251;1726;-44
2023/01/17 04:10:23;;;;;;;;;;;23.20;32.40;;;;;;475510;251;2200;-44
2023/01/17 04:12:24;;;;;;;;;;;23.20;32.30;;;;;;475389;250;2092;-44
2023/01/17 04:14:25;;;;;;;;;;;23.20;32.30;;;;;;475375;251;2300;-44
2023/01/17 04:16:27;;;;;;;;;;;23.20;32.30;;;;;;475522;250;1693;-44
2023/01/17 04:18:28;;;;;;;;;;;23.20;32.30;;;;;;475384;251;1587;-44
2023/01/17 04:20:29;;;;;;;;;;;23.30;32.30;;;;;;475808;250;1842;-44
2023/01/17 04:22:31;;;;;;;;;;;23.30;32.30;;;;;;475485;251;1722;-44
2023/01/17 04:24:32;;;;;;;;;;;23.30;32.30;;;;;;475475;251;2090;-44
2023/01/17 04:26:33;;;;;;;;;;;23.30;32.30;;;;;;475498;250;2401;-44
2023/01/17 04:28:35;;;;;;;;;;;23.30;32.30;;;;;;475532;251;1716;-44
2023/01/17 04:30:36;;;;;;;;;;;23.30;32.30;;;;;;475586;251;2216;-44
2023/01/17 04:32:37;;;;;;;;;;;23.30;32.20;;;;;;475889;250;1746;-44
2023/01/17 04:34:39;;;;;;;;;;;23.30;32.20;;;;;;475626;250;2215;-44
2023/01/17 04:36:40;;;;;;;;;;;23.30;32.30;;;;;;475733;250;1749;-44
2023/01/17 04:38:41;;;;;;;;;;;23.30;32.20;;;;;;475536;251;1789;-44
2023/01/17 04:40:43;;;;;;;;;;;23.30;32.20;;;;;;475629;250;2826;-44
2023/01/17 04:42:44;;;;;;;;;;;23.40;32.30;;;;;;475682;250;2025;-44
2023/01/17 04:44:45;;;;;;;;;;;23.40;32.30;;;;;;475501;251;2523;-44
2023/01/17 04:46:47;;;;;;;;;;;23.30;32.20;;;;;;475660;250;2149;-44
2023/01/17 04:48:48;;;;;;;;;;;23.40;32.30;;;;;;475605;250;3421;-43
2023/01/17 04:50:49;;;;;;;;;;;23.40;32.20;;;;;;475517;251;3013;-44
2023/01/17 04:52:51;;;;;;;;;;;23.40;32.20;;;;;;475627;250;2276;-44
2023/01/17 04:54:52;;;;;;;;;;;23.40;32.20;;;;;;475636;250;1717;-44
2023/01/17 04:56:53;;;;;;;;;;;23.40;32.20;;;;;;475618;251;1916;-44
2023/01/17 04:58:55;;;;;;;;;;;23.40;32.20;;;;;;475718;250;1935;-44
2023/01/17 05:00:56;;;;;;;;;;;23.40;32.20;;;;;;475587;250;1718;-44
2023/01/17 05:02:57;;;;;;;;;;;23.50;32.20;;;;;;475678;250;1687;-44
2023/01/17 05:04:59;;;;;;;;;;;23.40;32.20;;;;;;475869;250;1959;-43
2023/01/17 05:07:00;;;;;;;;;;;23.50;32.20;;;;;;475668;250;1963;-44
2023/01/17 05:09:02;;;;;;;;;;;23.50;32.20;;;;;;475530;250;1669;-44
2023/01/17 05:11:03;;;;;;;;;;;23.50;32.20;;;;;;475347;250;2191;-44
2023/01/17 05:13:04;;;;;;;;;;;23.50;32.20;;;;;;475393;250;1653;-44
2023/01/17 05:15:06;;;;;;;;;;;23.50;32.10;;;;;;475611;250;2180;-44
2023/01/17 05:17:09;;;;;;;;;;;23.50;32.10;;;;;;475337;251;1727;-44
2023/01/17 05:19:08;;;;;;;;;;;23.50;32.10;;;;;;475282;250;2501;-44
2023/01/17 05:21:10;;;;;;;;;;;23.50;32.20;;;;;;475628;250;1901;-44
2023/01/17 05:23:11;;;;;;;;;;;23.50;32.10;;;;;;475369;251;2036;-44
2023/01/17 05:25:12;;;;;;;;;;;23.50;32.10;;;;;;475571;250;2246;-44
2023/01/17 05:27:14;;;;;;;;;;;23.50;32.00;;;;;;475402;250;1928;-44
2023/01/17 05:29:15;;;;;;;;;;;23.60;32.10;;;;;;475164;250;2414;-44
2023/01/17 05:31:16;;;;;;;;;;;23.50;32.00;;;;;;475308;251;2252;-44
2023/01/17 05:33:18;;;;;;;;;;;23.60;32.10;;;;;;475249;251;1722;-44
2023/01/17 05:35:19;;;;;;;;;;;23.60;32.10;;;;;;475267;251;1687;-44
2023/01/17 05:37:20;;;;;;;;;;;23.60;32.10;;;;;;475277;251;1689;-44
2023/01/17 05:39:22;;;;;;;;;;;23.60;32.00;;;;;;475373;250;1874;-44
2023/01/17 05:41:23;;;;;;;;;;;23.60;32.10;;;;;;475423;251;1621;-44
2023/01/17 05:43:24;;;;;;;;;;;23.50;32.20;;;;;;475695;250;1691;-44
2023/01/17 05:45:26;;;;;;;;;;;23.50;32.30;;;;;;475393;250;1854;-43
2023/01/17 05:47:27;;;;;;;;;;;23.30;32.50;;;;;;475724;250;2183;-44
2023/01/17 05:49:28;;;;;;;;;;;23.10;32.80;;;;;;475570;250;2397;-44
2023/01/17 05:51:30;;;;;;;;;;;23.00;33.10;;;;;;475559;250;2191;-43
2023/01/17 05:53:31;;;;;;;;;;;22.80;33.30;;;;;;475578;250;3068;-44
2023/01/17 05:55:32;;;;;;;;;;;22.70;33.50;;;;;;475569;250;2008;-44
2023/01/17 05:57:34;;;;;;;;;;;22.60;33.70;;;;;;475372;251;1708;-44
2023/01/17 05:59:35;;;;;;;;;;;22.50;33.80;;;;;;475493;250;1908;-44
2023/01/17 06:01:36;;;;;;;;;;;22.50;33.90;;;;;;475697;250;1667;-44
2023/01/17 06:03:38;;;;;;;;;;;22.40;34.00;;;;;;475659;250;1785;-43
2023/01/17 06:05:39;;;;;;;;;;;22.30;34.10;;;;;;475588;250;1672;-44
2023/01/17 06:07:41;;;;;;;;;;;22.30;34.20;;;;;;475542;251;1543;-44
2023/01/17 06:09:42;;;;;;;;;;;22.20;34.20;;;;;;475648;246;2153;-44
2023/01/17 06:11:43;;;;;;;;;;;22.20;34.30;;;;;;475671;250;1829;-43
2023/01/17 06:13:45;;;;;;;;;;;22.20;34.40;;;;;;475480;251;1592;-44
2023/01/17 06:15:46;;;;;;;;;;;22.10;34.40;;;;;;475591;251;1717;-44
2023/01/17 06:17:47;;;;;;;;;;;22.10;34.50;;;;;;475653;250;1812;-44
2023/01/17 06:19:49;;;;;;;;;;;22.00;34.60;;;;;;475480;251;2407;-44
2023/01/17 06:21:50;;;;;;;;;;;22.00;34.70;;;;;;475532;250;1756;-44
2023/01/17 06:23:51;;;;;;;;;;;22.00;34.80;;;;;;475510;250;1681;-44
2023/01/17 06:25:53;;;;;;;;;;;21.90;34.70;;;;;;475721;250;2330;-43
2023/01/17 06:27:54;;;;;;;;;;;22.00;34.80;;;;;;475554;250;2157;-44
2023/01/17 06:29:55;;;;;;;;;;;21.90;34.80;;;;;;475416;250;2161;-44
2023/01/17 06:31:57;;;;;;;;;;;21.90;34.90;;;;;;475651;250;2081;-43
2023/01/17 06:33:58;;;;;;;;;;;21.80;34.90;;;;;;475438;251;1688;-44
2023/01/17 06:35:59;;;;;;;;;;;21.80;35.00;;;;;;475463;250;1706;-44
2023/01/17 06:38:01;;;;;;;;;;;21.80;35.00;;;;;;475739;250;2198;-44
2023/01/17 06:40:02;;;;;;;;;;;21.70;35.00;;;;;;475476;250;1889;-44
2023/01/17 06:42:03;;;;;;;;;;;21.70;35.10;;;;;;475445;251;1682;-44
2023/01/17 06:44:06;;;;;;;;;;;21.70;35.10;;;;;;475565;250;1756;-43
2023/01/17 06:46:06;;;;;;;;;;;21.70;35.10;;;;;;475329;251;1663;-43
2023/01/17 06:48:07;;;;;;;;;;;21.70;35.10;;;;;;475484;250;1747;-44
2023/01/17 06:50:09;;;;;;;;;;;21.60;35.10;;;;;;475290;251;2196;-43
2023/01/17 06:52:10;;;;;;;;;;;21.60;35.20;;;;;;475473;250;2093;-44
2023/01/17 06:54:11;;;;;;;;;;;21.60;35.20;;;;;;475356;250;2196;-44
2023/01/17 06:56:13;;;;;;;;;;;21.50;35.30;;;;;;475454;250;1938;-43
2023/01/17 06:58:14;;;;;;;;;;;21.50;35.40;;;;;;475375;250;2445;-44
2023/01/17 07:00:15;;;;;;;;;;;21.50;35.30;;;;;;475241;251;1701;-44
2023/01/17 07:02:17;;;;;;;;;;;21.50;35.40;;;;;;475277;250;1716;-44
2023/01/17 07:04:18;;;;;;;;;;;21.50;35.40;;;;;;475419;250;1906;-44
2023/01/17 07:06:19;;;;;;;;;;;21.50;35.40;;;;;;475103;250;1586;-44
2023/01/17 07:08:21;;;;;;;;;;;21.50;35.40;;;;;;475289;251;1719;-43
2023/01/17 07:10:23;;;;;;;;;;;21.40;35.40;;;;;;475504;250;2194;-43
2023/01/17 07:12:24;;;;;;;;;;;21.40;35.40;;;;;;475220;251;1665;-44
2023/01/17 07:14:25;;;;;;;;;;;21.30;35.40;;;;;;475354;250;1708;-43
2023/01/17 07:16:26;;;;;;;;;;;21.30;35.50;;;;;;475440;250;2138;-43
2023/01/17 07:18:28;;;;;;;;;;;21.30;35.50;;;;;;475302;251;1707;-43
2023/01/17 07:20:29;;;;;;;;;;;21.20;35.50;;;;;;475572;250;1631;-43
2023/01/17 07:22:30;;;;;;;;;;;21.20;35.50;;;;;;475623;250;1708;-44
2023/01/17 07:24:35;;;;;;;;;;;21.20;35.50;;;;;;475553;250;1790;-43
2023/01/17 07:26:36;;;;;;;;;;;21.20;35.50;;;;;;474993;251;1702;-44
2023/01/17 07:28:35;;;;;;;;;;;21.30;35.50;;;;;;475351;250;2041;-44
2023/01/17 07:30:36;;;;;;;;;;;21.40;34.90;;;;;;475622;250;2203;-44
2023/01/17 07:32:38;;;;;;;;;;;21.70;34.60;;;;;;475319;251;1817;-44
2023/01/17 07:34:39;;;;;;;;;;;21.90;34.20;;;;;;475401;250;1624;-44
2023/01/17 07:36:40;;;;;;;;;;;22.10;33.80;;;;;;475827;250;2315;-44
2023/01/17 07:38:43;;;;;;;;;;;22.20;33.50;;;;;;475562;250;1731;-44
2023/01/17 07:40:44;;;;;;;;;;;22.30;33.30;;;;;;475229;250;2121;-43
2023/01/17 07:42:45;;;;;;;;;;;22.40;33.20;;;;;;475324;250;2296;-43
2023/01/17 07:44:46;;;;;;;;;;;22.40;32.90;;;;;;475322;251;1743;-44
2023/01/17 07:46:48;;;;;;;;;;;22.50;32.70;;;;;;475407;250;1765;-44
2023/01/17 07:48:49;;;;;;;;;;;22.60;32.80;;;;;;475392;250;1616;-44
2023/01/17 07:50:50;;;;;;;;;;;22.60;32.70;;;;;;475404;250;2273;-44
2023/01/17 07:52:52;;;;;;;;;;;22.70;32.60;;;;;;475272;250;2134;-44
2023/01/17 07:54:53;;;;;;;;;;;22.70;32.40;;;;;;475074;251;1772;-44
2023/01/17 07:56:54;;;;;;;;;;;22.80;32.40;;;;;;475209;250;2132;-44
2023/01/17 07:58:56;;;;;;;;;;;22.80;32.30;;;;;;475135;250;2126;-44
2023/01/17 08:00:57;;;;;;;;;;;22.90;32.30;;;;;;475022;250;1743;-44
2023/01/17 08:02:58;;;;;;;;;;;22.90;32.30;;;;;;474974;246;1197;-44
2023/01/17 08:05:00;;;;;;;;;;;22.90;32.20;;;;;;474992;250;1804;-44
2023/01/17 08:07:01;;;;;;;;;;;23.00;32.10;;;;;;474889;250;1687;-44
2023/01/17 08:09:02;;;;;;;;;;;23.00;32.10;;;;;;475017;250;1648;-44
2023/01/17 08:11:04;;;;;;;;;;;23.00;32.10;;;;;;474904;246;2294;-44
2023/01/17 08:13:05;;;;;;;;;;;23.10;32.00;;;;;;475195;251;2071;-44
2023/01/17 08:15:06;;;;;;;;;;;23.10;31.80;;;;;;475358;250;1703;-44
2023/01/17 08:17:07;;;;;;;;;;;23.10;31.90;;;;;;475059;251;1721;-44
2023/01/17 08:19:09;;;;;;;;;;;23.10;31.90;;;;;;475271;250;2237;-44
2023/01/17 08:21:11;;;;;;;;;;;23.20;31.80;;;;;;475059;250;2152;-44
2023/01/17 08:23:12;;;;;;;;;;;23.20;31.80;;;;;;475208;250;1814;-43
2023/01/17 08:25:13;;;;;;;;;;;23.20;31.80;;;;;;475186;251;1616;-44
2023/01/17 08:27:14;;;;;;;;;;;23.20;31.70;;;;;;475079;251;1786;-44
2023/01/17 08:29:17;;;;;;;;;;;23.30;31.80;;;;;;475208;250;1440;-44
2023/01/17 08:31:18;;;;;;;;;;;23.30;31.70;;;;;;475022;250;2160;-44
2023/01/17 08:33:19;;;;;;;;;;;23.30;31.60;;;;;;475319;250;1300;-44
2023/01/17 08:35:21;;;;;;;;;;;23.30;31.60;;;;;;475155;251;1720;-44
2023/01/17 08:37:22;;;;;;;;;;;23.30;31.50;;;;;;475179;251;1735;-44
2023/01/17 08:39:23;;;;;;;;;;;23.40;31.50;;;;;;475443;250;1748;-44
2023/01/17 08:41:26;;;;;;;;;;;23.40;31.50;;;;;;475136;250;2137;-44
2023/01/17 08:43:27;;;;;;;;;;;23.40;31.50;;;;;;475191;251;1739;-44
2023/01/17 08:45:28;;;;;;;;;;;23.40;31.40;;;;;;475381;250;1737;-44
2023/01/17 08:47:30;;;;;;;;;;;23.40;31.40;;;;;;475223;251;2698;-44
2023/01/17 08:49:31;;;;;;;;;;;23.50;31.40;;;;;;475385;250;2306;-44
2023/01/17 08:51:33;;;;;;;;;;;23.40;31.40;;;;;;475212;251;2184;-44
2023/01/17 08:53:34;;;;;;;;;;;23.50;31.30;;;;;;475088;251;2162;-44
2023/01/17 08:55:39;;;;;;;;;;;23.50;31.30;;;;;;475182;251;1990;-44
2023/01/17 08:57:38;;;;;;;;;;;23.50;31.30;;;;;;475308;250;1936;-44
2023/01/17 08:59:39;;;;;;;;;;;23.50;31.20;;;;;;475225;251;1932;-44
2023/01/17 09:01:41;;;;;;;;;;;23.50;31.20;;;;;;475206;250;1711;-44
2023/01/17 09:03:42;;;;;;;;;;;23.60;31.20;;;;;;475168;250;1792;-44
2023/01/17 09:05:43;;;;;;;;;;;23.60;31.10;;;;;;475253;250;2184;-44
2023/01/17 09:07:44;;;;;;;;;;;23.60;31.20;;;;;;475297;250;1697;-44
2023/01/17 09:09:46;;;;;;;;;;;23.60;31.10;;;;;;475148;251;1704;-44
2023/01/17 09:11:48;;;;;;;;;;;23.60;31.10;;;;;;475307;250;2476;-44
2023/01/17 09:13:49;;;;;;;;;;;23.70;31.10;;;;;;475107;250;1946;-44
2023/01/17 09:15:50;;;;;;;;;;;23.70;31.20;;;;;;475257;250;2540;-44
2023/01/17 09:17:52;;;;;;;;;;;23.50;31.30;;;;;;475242;251;2087;-44
2023/01/17 09:19:53;;;;;;;;;;;23.50;31.50;;;;;;475159;250;2083;-44
2023/01/17 09:21:54;;;;;;;;;;;23.30;31.70;;;;;;475316;250;1816;-44
2023/01/17 09:23:55;;;;;;;;;;;23.10;32.00;;;;;;475210;246;1646;-44
2023/01/17 09:25:57;;;;;;;;;;;23.00;32.30;;;;;;475450;250;1668;-44
2023/01/17 09:27:58;;;;;;;;;;;22.80;32.50;;;;;;475129;250;1702;-44
2023/01/17 09:29:59;;;;;;;;;;;22.70;32.70;;;;;;475243;250;1648;-44
2023/01/17 09:32:01;;;;;;;;;;;22.60;32.90;;;;;;475241;251;2221;-44
2023/01/17 09:34:02;;;;;;;;;;;22.50;33.00;;;;;;475309;250;2018;-44
2023/01/17 09:36:04;;;;;;;;;;;22.40;33.10;;;;;;475215;250;2003;-44
2023/01/17 09:38:05;;;;;;;;;;;22.30;33.30;;;;;;475254;247;2317;-44
2023/01/17 09:40:06;;;;;;;;;;;22.20;33.40;;;;;;475209;251;2001;-44
2023/01/17 09:42:08;;;;;;;;;;;22.20;33.40;;;;;;475192;250;1677;-43
2023/01/17 09:44:09;;;;;;;;;;;22.10;33.50;;;;;;475453;250;1454;-43
2023/01/17 09:46:10;;;;;;;;;;;22.10;33.50;;;;;;475450;250;2231;-44
2023/01/17 09:48:13;;;;;;;;;;;22.10;33.60;;;;;;475164;251;1563;-43
2023/01/17 09:50:14;;;;;;;;;;;22.00;33.70;;;;;;475300;250;2524;-44
2023/01/17 09:52:15;;;;;;;;;;;22.00;33.70;;;;;;475251;250;2203;-44
2023/01/17 09:54:16;;;;;;;;;;;22.00;33.80;;;;;;475251;251;1570;-44
2023/01/17 09:56:17;;;;;;;;;;;22.20;33.60;;;;;;475304;251;1582;-43
2023/01/17 09:58:19;;;;;;;;;;;22.30;33.10;;;;;;475175;250;1699;-44
2023/01/17 10:00:20;;;;;;;;;;;22.40;33.00;;;;;;475430;250;1714;-43
2023/01/17 10:02:21;;;;;;;;;;;22.30;33.10;;;;;;475203;250;1839;-44
2023/01/17 10:04:22;;;;;;;;;;;22.20;33.30;;;;;;475185;251;1747;-43
2023/01/17 10:06:24;;;;;;;;;;;22.10;33.40;;;;;;475328;250;1615;-43
2023/01/17 10:08:25;;;;;;;;;;;22.10;33.50;;;;;;475252;251;1781;-44
2023/01/17 10:10:26;;;;;;;;;;;22.00;33.50;;;;;;475191;250;2093;-44
2023/01/17 10:12:28;;;;;;;;;;;22.00;33.60;;;;;;475046;251;2192;-43
2023/01/17 10:14:29;;;;;;;;;;;22.00;33.70;;;;;;475170;251;2584;-43
2023/01/17 10:16:30;;;;;;;;;;;21.90;33.60;;;;;;475110;250;1675;-44
2023/01/17 10:18:32;;;;;;;;;;;21.90;33.60;;;;;;475283;251;1864;-44
2023/01/17 10:20:33;;;;;;;;;;;21.90;33.60;;;;;;475328;250;2232;-44
2023/01/17 10:22:34;;;;;;;;;;;21.90;33.70;;;;;;475284;250;1649;-44
2023/01/17 10:24:36;;;;;;;;;;;21.90;33.70;;;;;;475201;250;1991;-43
2023/01/17 10:26:37;;;;;;;;;;;21.90;33.70;;;;;;475271;250;2106;-44
2023/01/17 10:28:38;;;;;;;;;;;21.80;33.70;;;;;;475155;250;1854;-43
2023/01/17 10:30:42;;;;;;;;;;;21.80;33.70;;;;;;475254;250;2321;-43
2023/01/17 10:32:42;;;;;;;;;;;21.80;33.70;;;;;;474967;250;2180;-44
2023/01/17 10:34:43;;;;;;;;;;;21.80;33.80;;;;;;475120;251;2076;-44
2023/01/17 10:36:44;;;;;;;;;;;21.70;33.80;;;;;;475032;250;1915;-44
2023/01/17 10:38:46;;;;;;;;;;;21.70;33.70;;;;;;474998;250;1762;-43
2023/01/17 10:40:49;;;;;;;;;;;21.80;33.80;;;;;;474945;251;1652;-44
2023/01/17 10:42:50;;;;;;;;;;;21.70;33.70;;;;;;474973;251;1880;-44
2023/01/17 10:44:51;;;;;;;;;;;21.80;33.70;;;;;;475081;250;1730;-44
2023/01/17 10:46:52;;;;;;;;;;;21.70;33.70;;;;;;474920;251;1913;-43
2023/01/17 10:48:53;;;;;;;;;;;21.70;33.80;;;;;;475136;250;1965;-44
2023/01/17 10:50:55;;;;;;;;;;;21.80;33.70;;;;;;475155;250;1934;-44
2023/01/17 10:52:57;;;;;;;;;;;22.00;33.40;;;;;;475070;251;2169;-44
2023/01/17 10:55:02;;;;;;;;;;;22.20;33.00;;;;;;474874;250;1705;-43
2023/01/17 10:56:59;;;;;;;;;;;22.30;32.80;;;;;;474389;250;1492;-44
2023/01/17 10:59:00;;;;;;;;;;;22.20;32.80;;;;;;474989;250;1748;-44
2023/01/17 11:01:01;;;;;;;;;;;22.00;33.00;;;;;;474898;246;1912;-43
2023/01/17 11:03:03;;;;;;;;;;;22.00;33.20;;;;;;475081;251;1323;-43
2023/01/17 11:05:04;;;;;;;;;;;21.90;33.30;;;;;;475196;250;1906;-44
2023/01/17 11:07:06;;;;;;;;;;;21.90;33.30;;;;;;474961;251;1651;-43
2023/01/17 11:09:10;;;;;;;;;;;21.80;33.40;;;;;;475154;250;2455;-43
2023/01/17 11:11:09;;;;;;;;;;;21.80;33.50;;;;;;474784;251;1932;-44
2023/01/17 11:13:10;;;;;;;;;;;21.80;33.40;;;;;;475062;250;2188;-43
2023/01/17 11:15:11;;;;;;;;;;;21.80;33.40;;;;;;475228;246;1606;-43
2023/01/17 11:17:14;;;;;;;;;;;21.80;33.40;;;;;;475197;250;1485;-44
2023/01/17 11:19:15;;;;;;;;;;;21.80;33.30;;;;;;474933;251;1553;-44
2023/01/17 11:21:16;;;;;;;;;;;21.80;33.40;;;;;;475189;250;2842;-44
2023/01/17 11:23:17;;;;;;;;;;;21.80;33.40;;;;;;474978;251;1596;-44
2023/01/17 11:25:18;;;;;;;;;;;21.70;33.40;;;;;;474959;250;2070;-43
2023/01/17 11:27:20;;;;;;;;;;;21.80;33.40;;;;;;474972;251;1986;-44
2023/01/17 11:29:21;;;;;;;;;;;21.70;33.40;;;;;;475088;250;1826;-43
2023/01/17 11:31:22;;;;;;;;;;;21.70;33.40;;;;;;475057;250;2026;-43
2023/01/17 11:33:25;;;;;;;;;;;21.70;33.40;;;;;;475296;250;2200;-43
2023/01/17 11:35:25;;;;;;;;;;;21.70;33.40;;;;;;475082;250;1595;-43
2023/01/17 11:37:28;;;;;;;;;;;21.60;33.40;;;;;;474917;251;2025;-44
2023/01/17 11:39:28;;;;;;;;;;;21.60;33.40;;;;;;475243;250;2262;-43
2023/01/17 11:41:29;;;;;;;;;;;21.60;33.40;;;;;;475094;250;1737;-44
2023/01/17 11:43:30;;;;;;;;;;;21.60;33.40;;;;;;475217;251;1367;-44
2023/01/17 11:45:31;;;;;;;;;;;21.70;33.40;;;;;;475119;250;1917;-44
2023/01/17 11:47:33;;;;;;;;;;;21.60;33.40;;;;;;475070;250;1723;-44
2023/01/17 11:49:34;;;;;;;;;;;21.60;33.40;;;;;;474986;250;1716;-44
2023/01/17 11:51:36;;;;;;;;;;;21.60;33.40;;;;;;474775;251;1697;-43
2023/01/17 11:53:37;;;;;;;;;;;21.70;33.40;;;;;;475014;246;2950;-43
2023/01/17 11:55:39;;;;;;;;;;;21.60;33.30;;;;;;474976;250;1744;-43
2023/01/17 11:57:39;;;;;;;;;;;21.70;33.30;;;;;;474955;250;2456;-43
2023/01/17 11:59:41;;;;;;;;;;;21.70;33.30;;;;;;475010;251;1907;-44
2023/01/17 12:01:42;;;;;;;;;;;21.60;33.20;;;;;;474892;251;1889;-43
2023/01/17 12:03:44;;;;;;;;;;;21.70;33.30;;;;;;474995;251;1770;-44
2023/01/17 12:05:45;;;;;;;;;;;21.60;33.20;;;;;;475102;250;1664;-44
2023/01/17 12:07:47;;;;;;;;;;;21.60;33.20;;;;;;475039;251;1665;-44
2023/01/17 12:09:48;;;;;;;;;;;21.60;33.20;;;;;;475152;251;1818;-44
2023/01/17 12:14:10;;;;;;;;;;;21.80;33.10;;;;;;474986;251;1707;-44
2023/01/17 12:16:26;;;;;;;;;;;22.00;32.60;;;;;;475127;250;1706;-44
2023/01/17 12:18:29;;;;;;;;;;;22.30;32.20;;;;;;474877;251;1669;-43
2023/01/17 12:20:29;;;;;;;;;;;22.30;32.00;;;;;;475194;251;1819;-43
2023/01/17 12:22:32;;;;;;;;;;;22.30;32.10;;;;;;475215;250;1732;-43
2023/01/17 12:24:32;;;;;;;;;;;22.10;32.20;;;;;;475092;251;1713;-43
2023/01/17 12:26:33;;;;;;;;;;;22.00;32.60;;;;;;475254;250;2141;-44
2023/01/17 12:28:35;;;;;;;;;;;21.90;32.70;;;;;;475320;250;1691;-43
2023/01/17 12:30:36;;;;;;;;;;;21.80;32.80;;;;;;475097;250;2159;-44
2023/01/17 12:32:37;;;;;;;;;;;21.80;32.90;;;;;;474979;251;2538;-44
2023/01/17 12:34:38;;;;;;;;;;;21.80;32.90;;;;;;475067;250;1690;-43
2023/01/17 12:36:40;;;;;;;;;;;21.80;33.00;;;;;;475066;250;1960;-43
2023/01/17 12:38:41;;;;;;;;;;;21.70;32.90;;;;;;475108;250;2091;-43
2023/01/17 12:40:43;;;;;;;;;;;21.70;33.00;;;;;;474934;251;1696;-44
2023/01/17 12:42:44;;;;;;;;;;;21.70;33.00;;;;;;475022;250;1716;-43
2023/01/17 12:44:45;;;;;;;;;;;21.70;33.00;;;;;;475064;251;1632;-44
2023/01/17 12:46:48;;;;;;;;;;;21.70;32.90;;;;;;474919;251;1771;-44
2023/01/17 12:48:48;;;;;;;;;;;21.70;32.90;;;;;;475009;251;2658;-44
2023/01/17 12:50:49;;;;;;;;;;;21.70;33.00;;;;;;475116;250;1963;-44
2023/01/17 12:52:51;;;;;;;;;;;21.70;33.00;;;;;;475056;250;2200;-43
2023/01/17 12:54:52;;;;;;;;;;;21.60;33.00;;;;;;474866;251;1657;-43
2023/01/17 12:56:53;;;;;;;;;;;21.70;33.00;;;;;;474953;251;1786;-44
2023/01/17 12:58:55;;;;;;;;;;;21.60;33.00;;;;;;475201;250;1704;-44
2023/01/17 13:00:56;;;;;;;;;;;21.60;33.00;;;;;;474987;250;1715;-43
2023/01/17 13:02:57;;;;;;;;;;;21.60;32.90;;;;;;474569;251;1232;-44
2023/01/17 13:04:59;;;;;;;;;;;21.60;33.00;;;;;;474594;250;1610;-43
2023/01/17 13:07:00;;;;;;;;;;;21.60;33.00;;;;;;474549;250;1754;-44
2023/01/17 13:09:01;;;;;;;;;;;21.60;33.00;;;;;;475033;250;1588;-43
2023/01/17 13:11:03;;;;;;;;;;;21.60;33.00;;;;;;474664;250;2464;-43
2023/01/17 13:13:04;;;;;;;;;;;21.70;32.90;;;;;;474733;250;2156;-44
2023/01/17 13:15:06;;;;;;;;;;;21.70;32.90;;;;;;474846;250;1532;-44
2023/01/17 13:17:07;;;;;;;;;;;21.60;32.90;;;;;;474763;250;2127;-44
2023/01/17 13:19:08;;;;;;;;;;;21.60;32.90;;;;;;474866;251;1855;-44